sensor_id;sensor_type;location;lat;lon;timestamp;P1;durP1;ratioP1;P2;durP2;ratioP2
35376;SDS011;21480;51.642;4.834;2022-10-16T00:01:26;121.87;;;112.13;;
35376;SDS011;21480;51.642;4.834;2022-10-16T00:03:53;121.40;;;112.10;;
35376;SDS011;21480;51.642;4.834;2022-10-16T00:06:20;120.63;;;111.33;;
35376;SDS011;21480;51.642;4.834;2022-10-16T00:08:47;121.10;;;111.47;;
35376;SDS011;21480;51.642;4.834;2022-10-16T00:11:21;120.23;;;111.03;;
35376;SDS011;21480;51.642;4.834;2022-10-16T00:13:49;119.13;;;110.03;;
35376;SDS011;21480;51.642;4.834;2022-10-16T00:16:17;119.80;;;110.73;;
35376;SDS011;21480;51.642;4.834;2022-10-16T00:18:44;119.83;;;110.73;;
35376;SDS011;21480;51.642;4.834;2022-10-16T00:21:11;121.77;;;112.30;;
35376;SDS011;21480;51.642;4.834;2022-10-16T00:23:45;121.43;;;111.80;;
35376;SDS011;21480;51.642;4.834;2022-10-16T00:26:12;121.23;;;112.13;;
35376;SDS011;21480;51.642;4.834;2022-10-16T00:28:40;120.73;;;111.53;;
35376;SDS011;21480;51.642;4.834;2022-10-16T00:31:07;121.03;;;111.53;;
35376;SDS011;21480;51.642;4.834;2022-10-16T00:33:35;121.60;;;111.67;;
35376;SDS011;21480;51.642;4.834;2022-10-16T00:36:02;119.60;;;110.17;;
35376;SDS011;21480;51.642;4.834;2022-10-16T00:38:29;121.60;;;112.20;;
35376;SDS011;21480;51.642;4.834;2022-10-16T00:40:55;120.20;;;110.90;;
35376;SDS011;21480;51.642;4.834;2022-10-16T00:43:37;119.57;;;110.27;;
35376;SDS011;21480;51.642;4.834;2022-10-16T00:49:16;120.30;;;111.03;;
35376;SDS011;21480;51.642;4.834;2022-10-16T00:51:48;119.07;;;109.83;;
35376;SDS011;21480;51.642;4.834;2022-10-16T00:54:29;121.33;;;111.97;;
35376;SDS011;21480;51.642;4.834;2022-10-16T00:56:57;120.93;;;111.73;;
35376;SDS011;21480;51.642;4.834;2022-10-16T00:59:29;121.13;;;112.03;;
35376;SDS011;21480;51.642;4.834;2022-10-16T01:01:57;121.90;;;112.67;;
35376;SDS011;21480;51.642;4.834;2022-10-16T01:04:24;120.60;;;111.33;;
35376;SDS011;21480;51.642;4.834;2022-10-16T01:10:17;121.30;;;112.30;;
35376;SDS011;21480;51.642;4.834;2022-10-16T01:15:36;120.43;;;111.23;;
35376;SDS011;21480;51.642;4.834;2022-10-16T01:18:46;119.90;;;110.83;;
35376;SDS011;21480;51.642;4.834;2022-10-16T01:21:10;121.70;;;112.13;;
35376;SDS011;21480;51.642;4.834;2022-10-16T01:26:43;119.93;;;110.83;;
35376;SDS011;21480;51.642;4.834;2022-10-16T01:32:50;121.23;;;112.23;;
35376;SDS011;21480;51.642;4.834;2022-10-16T01:35:21;121.60;;;112.27;;
35376;SDS011;21480;51.642;4.834;2022-10-16T01:38:00;120.80;;;111.60;;
35376;SDS011;21480;51.642;4.834;2022-10-16T01:40:34;120.27;;;111.07;;
35376;SDS011;21480;51.642;4.834;2022-10-16T01:43:05;119.73;;;110.70;;
35376;SDS011;21480;51.642;4.834;2022-10-16T01:45:44;119.50;;;110.50;;
35376;SDS011;21480;51.642;4.834;2022-10-16T01:48:12;119.63;;;110.43;;
35376;SDS011;21480;51.642;4.834;2022-10-16T01:50:41;119.90;;;110.80;;
35376;SDS011;21480;51.642;4.834;2022-10-16T01:53:10;120.00;;;111.10;;
35376;SDS011;21480;51.642;4.834;2022-10-16T01:55:38;120.20;;;110.67;;
35376;SDS011;21480;51.642;4.834;2022-10-16T01:58:10;120.63;;;111.63;;
35376;SDS011;21480;51.642;4.834;2022-10-16T02:00:38;120.37;;;111.37;;
35376;SDS011;21480;51.642;4.834;2022-10-16T02:03:07;119.20;;;110.40;;
35376;SDS011;21480;51.642;4.834;2022-10-16T02:05:41;121.17;;;112.17;;
35376;SDS011;21480;51.642;4.834;2022-10-16T02:08:14;121.17;;;112.07;;
35376;SDS011;21480;51.642;4.834;2022-10-16T02:10:40;119.73;;;110.73;;
35376;SDS011;21480;51.642;4.834;2022-10-16T02:13:08;120.07;;;111.10;;
35376;SDS011;21480;51.642;4.834;2022-10-16T02:15:36;120.07;;;111.07;;
35376;SDS011;21480;51.642;4.834;2022-10-16T02:18:03;119.20;;;110.00;;
35376;SDS011;21480;51.642;4.834;2022-10-16T02:20:32;119.60;;;110.60;;
35376;SDS011;21480;51.642;4.834;2022-10-16T02:23:07;121.17;;;111.73;;
35376;SDS011;21480;51.642;4.834;2022-10-16T02:25:40;119.07;;;110.17;;
35376;SDS011;21480;51.642;4.834;2022-10-16T02:28:15;120.47;;;111.33;;
35376;SDS011;21480;51.642;4.834;2022-10-16T02:33:20;119.47;;;110.47;;
35376;SDS011;21480;51.642;4.834;2022-10-16T02:35:48;118.57;;;109.57;;
35376;SDS011;21480;51.642;4.834;2022-10-16T02:38:16;120.00;;;110.80;;
35376;SDS011;21480;51.642;4.834;2022-10-16T02:40:42;120.63;;;111.43;;
35376;SDS011;21480;51.642;4.834;2022-10-16T02:43:09;119.53;;;110.53;;
35376;SDS011;21480;51.642;4.834;2022-10-16T02:45:35;119.53;;;110.43;;
35376;SDS011;21480;51.642;4.834;2022-10-16T02:48:01;119.87;;;110.67;;
35376;SDS011;21480;51.642;4.834;2022-10-16T02:50:27;119.77;;;110.63;;
35376;SDS011;21480;51.642;4.834;2022-10-16T02:52:53;120.57;;;111.47;;
35376;SDS011;21480;51.642;4.834;2022-10-16T02:55:19;120.47;;;111.47;;
35376;SDS011;21480;51.642;4.834;2022-10-16T02:57:44;120.90;;;111.63;;
35376;SDS011;21480;51.642;4.834;2022-10-16T03:00:12;121.47;;;112.20;;
35376;SDS011;21480;51.642;4.834;2022-10-16T03:02:39;121.27;;;111.87;;
35376;SDS011;21480;51.642;4.834;2022-10-16T03:05:05;120.23;;;110.93;;
35376;SDS011;21480;51.642;4.834;2022-10-16T03:07:31;120.53;;;111.53;;
35376;SDS011;21480;51.642;4.834;2022-10-16T03:09:57;120.47;;;110.83;;
35376;SDS011;21480;51.642;4.834;2022-10-16T03:12:25;121.83;;;112.47;;
35376;SDS011;21480;51.642;4.834;2022-10-16T03:14:51;122.57;;;112.40;;
35376;SDS011;21480;51.642;4.834;2022-10-16T03:17:17;120.20;;;111.20;;
35376;SDS011;21480;51.642;4.834;2022-10-16T03:19:43;119.57;;;109.97;;
35376;SDS011;21480;51.642;4.834;2022-10-16T03:22:09;120.87;;;111.87;;
35376;SDS011;21480;51.642;4.834;2022-10-16T03:24:34;121.13;;;111.40;;
35376;SDS011;21480;51.642;4.834;2022-10-16T03:27:00;120.10;;;110.90;;
35376;SDS011;21480;51.642;4.834;2022-10-16T03:29:26;121.07;;;111.73;;
35376;SDS011;21480;51.642;4.834;2022-10-16T03:31:54;121.23;;;111.77;;
35376;SDS011;21480;51.642;4.834;2022-10-16T03:34:20;121.20;;;111.70;;
35376;SDS011;21480;51.642;4.834;2022-10-16T03:36:46;119.90;;;110.90;;
35376;SDS011;21480;51.642;4.834;2022-10-16T03:39:12;121.80;;;112.63;;
35376;SDS011;21480;51.642;4.834;2022-10-16T03:41:37;120.57;;;111.47;;
35376;SDS011;21480;51.642;4.834;2022-10-16T03:44:03;121.67;;;112.37;;
35376;SDS011;21480;51.642;4.834;2022-10-16T03:46:29;119.87;;;110.30;;
35376;SDS011;21480;51.642;4.834;2022-10-16T03:48:54;119.20;;;110.30;;
35376;SDS011;21480;51.642;4.834;2022-10-16T03:51:20;121.60;;;112.30;;
35376;SDS011;21480;51.642;4.834;2022-10-16T03:53:46;120.90;;;111.57;;
35376;SDS011;21480;51.642;4.834;2022-10-16T03:56:11;119.67;;;110.57;;
35376;SDS011;21480;51.642;4.834;2022-10-16T03:58:37;120.77;;;111.50;;
35376;SDS011;21480;51.642;4.834;2022-10-16T04:01:03;121.20;;;111.87;;
35376;SDS011;21480;51.642;4.834;2022-10-16T04:03:29;119.90;;;110.70;;
35376;SDS011;21480;51.642;4.834;2022-10-16T04:05:55;120.67;;;111.30;;
35376;SDS011;21480;51.642;4.834;2022-10-16T04:08:20;121.27;;;112.13;;
35376;SDS011;21480;51.642;4.834;2022-10-16T04:10:47;119.90;;;111.00;;
35376;SDS011;21480;51.642;4.834;2022-10-16T04:13:12;122.27;;;112.77;;
35376;SDS011;21480;51.642;4.834;2022-10-16T04:15:38;118.93;;;109.63;;
35376;SDS011;21480;51.642;4.834;2022-10-16T04:18:04;121.57;;;111.97;;
35376;SDS011;21480;51.642;4.834;2022-10-16T04:20:31;121.23;;;112.00;;
35376;SDS011;21480;51.642;4.834;2022-10-16T04:22:57;120.23;;;110.87;;
35376;SDS011;21480;51.642;4.834;2022-10-16T04:25:22;120.93;;;111.80;;
35376;SDS011;21480;51.642;4.834;2022-10-16T04:27:48;120.77;;;111.47;;
35376;SDS011;21480;51.642;4.834;2022-10-16T04:30:14;122.90;;;112.60;;
35376;SDS011;21480;51.642;4.834;2022-10-16T04:32:40;121.17;;;111.90;;
35376;SDS011;21480;51.642;4.834;2022-10-16T04:35:06;120.53;;;111.00;;
35376;SDS011;21480;51.642;4.834;2022-10-16T04:37:32;120.97;;;111.77;;
35376;SDS011;21480;51.642;4.834;2022-10-16T04:39:58;119.43;;;110.17;;
35376;SDS011;21480;51.642;4.834;2022-10-16T04:42:23;121.43;;;112.03;;
35376;SDS011;21480;51.642;4.834;2022-10-16T04:44:49;121.43;;;112.00;;
35376;SDS011;21480;51.642;4.834;2022-10-16T04:47:15;120.90;;;111.53;;
35376;SDS011;21480;51.642;4.834;2022-10-16T04:49:41;121.20;;;111.37;;
35376;SDS011;21480;51.642;4.834;2022-10-16T04:52:06;119.70;;;110.40;;
35376;SDS011;21480;51.642;4.834;2022-10-16T04:54:34;119.27;;;110.17;;
35376;SDS011;21480;51.642;4.834;2022-10-16T04:57:00;119.43;;;110.47;;
35376;SDS011;21480;51.642;4.834;2022-10-16T04:59:25;120.60;;;111.50;;
35376;SDS011;21480;51.642;4.834;2022-10-16T05:01:51;120.93;;;111.63;;
35376;SDS011;21480;51.642;4.834;2022-10-16T05:04:17;121.63;;;112.17;;
35376;SDS011;21480;51.642;4.834;2022-10-16T05:06:43;120.63;;;111.47;;
35376;SDS011;21480;51.642;4.834;2022-10-16T05:09:08;120.77;;;111.17;;
35376;SDS011;21480;51.642;4.834;2022-10-16T05:11:34;120.27;;;110.83;;
35376;SDS011;21480;51.642;4.834;2022-10-16T05:14:00;120.20;;;110.80;;
35376;SDS011;21480;51.642;4.834;2022-10-16T05:16:26;122.30;;;112.60;;
35376;SDS011;21480;51.642;4.834;2022-10-16T05:18:52;119.57;;;110.37;;
35376;SDS011;21480;51.642;4.834;2022-10-16T05:21:19;121.77;;;112.03;;
35376;SDS011;21480;51.642;4.834;2022-10-16T05:23:45;119.23;;;110.13;;
35376;SDS011;21480;51.642;4.834;2022-10-16T05:26:11;120.07;;;110.87;;
35376;SDS011;21480;51.642;4.834;2022-10-16T05:28:37;120.03;;;110.63;;
35376;SDS011;21480;51.642;4.834;2022-10-16T05:31:06;119.57;;;110.13;;
35376;SDS011;21480;51.642;4.834;2022-10-16T05:33:33;119.10;;;110.03;;
35376;SDS011;21480;51.642;4.834;2022-10-16T05:36:05;117.70;;;108.80;;
35376;SDS011;21480;51.642;4.834;2022-10-16T05:38:34;122.40;;;112.97;;
35376;SDS011;21480;51.642;4.834;2022-10-16T05:41:00;120.03;;;110.60;;
35376;SDS011;21480;51.642;4.834;2022-10-16T05:43:27;121.37;;;112.17;;
35376;SDS011;21480;51.642;4.834;2022-10-16T05:45:57;120.83;;;111.63;;
35376;SDS011;21480;51.642;4.834;2022-10-16T05:48:25;121.77;;;112.27;;
35376;SDS011;21480;51.642;4.834;2022-10-16T05:51:04;120.03;;;110.57;;
35376;SDS011;21480;51.642;4.834;2022-10-16T05:53:32;121.30;;;111.67;;
35376;SDS011;21480;51.642;4.834;2022-10-16T05:55:59;119.77;;;110.67;;
35376;SDS011;21480;51.642;4.834;2022-10-16T05:58:28;120.90;;;111.60;;
35376;SDS011;21480;51.642;4.834;2022-10-16T06:03:22;119.70;;;110.47;;
35376;SDS011;21480;51.642;4.834;2022-10-16T06:05:48;120.27;;;110.23;;
35376;SDS011;21480;51.642;4.834;2022-10-16T06:08:14;119.63;;;110.40;;
35376;SDS011;21480;51.642;4.834;2022-10-16T06:10:39;120.20;;;110.67;;
35376;SDS011;21480;51.642;4.834;2022-10-16T06:13:05;118.77;;;109.80;;
35376;SDS011;21480;51.642;4.834;2022-10-16T06:15:31;120.50;;;111.37;;
35376;SDS011;21480;51.642;4.834;2022-10-16T06:17:57;121.80;;;112.37;;
35376;SDS011;21480;51.642;4.834;2022-10-16T06:20:22;121.30;;;111.87;;
35376;SDS011;21480;51.642;4.834;2022-10-16T06:22:48;119.53;;;110.50;;
35376;SDS011;21480;51.642;4.834;2022-10-16T06:25:14;120.20;;;111.00;;
35376;SDS011;21480;51.642;4.834;2022-10-16T06:27:40;121.77;;;112.37;;
35376;SDS011;21480;51.642;4.834;2022-10-16T06:30:06;119.90;;;110.60;;
35376;SDS011;21480;51.642;4.834;2022-10-16T06:32:32;119.50;;;110.27;;
35376;SDS011;21480;51.642;4.834;2022-10-16T06:34:58;120.43;;;111.23;;
35376;SDS011;21480;51.642;4.834;2022-10-16T06:37:23;121.53;;;111.70;;
35376;SDS011;21480;51.642;4.834;2022-10-16T06:39:50;121.13;;;111.73;;
35376;SDS011;21480;51.642;4.834;2022-10-16T06:42:18;119.23;;;110.23;;
35376;SDS011;21480;51.642;4.834;2022-10-16T06:44:44;121.13;;;111.77;;
35376;SDS011;21480;51.642;4.834;2022-10-16T06:47:10;120.07;;;110.77;;
35376;SDS011;21480;51.642;4.834;2022-10-16T06:49:36;119.93;;;110.90;;
35376;SDS011;21480;51.642;4.834;2022-10-16T06:52:02;119.73;;;110.53;;
35376;SDS011;21480;51.642;4.834;2022-10-16T06:54:28;119.40;;;110.30;;
35376;SDS011;21480;51.642;4.834;2022-10-16T06:56:54;119.17;;;110.07;;
35376;SDS011;21480;51.642;4.834;2022-10-16T06:59:20;118.47;;;109.67;;
35376;SDS011;21480;51.642;4.834;2022-10-16T07:01:46;119.23;;;109.77;;
35376;SDS011;21480;51.642;4.834;2022-10-16T07:04:12;120.03;;;110.80;;
35376;SDS011;21480;51.642;4.834;2022-10-16T07:06:38;120.17;;;110.57;;
35376;SDS011;21480;51.642;4.834;2022-10-16T07:09:05;121.50;;;112.03;;
35376;SDS011;21480;51.642;4.834;2022-10-16T07:11:32;121.63;;;112.53;;
35376;SDS011;21480;51.642;4.834;2022-10-16T07:13:58;119.93;;;110.83;;
35376;SDS011;21480;51.642;4.834;2022-10-16T07:16:25;119.67;;;110.37;;
35376;SDS011;21480;51.642;4.834;2022-10-16T07:18:57;120.33;;;110.67;;
35376;SDS011;21480;51.642;4.834;2022-10-16T07:21:24;119.27;;;110.30;;
35376;SDS011;21480;51.642;4.834;2022-10-16T07:23:58;120.73;;;111.23;;
35376;SDS011;21480;51.642;4.834;2022-10-16T07:26:26;120.30;;;111.13;;
35376;SDS011;21480;51.642;4.834;2022-10-16T07:28:55;119.33;;;109.87;;
35376;SDS011;21480;51.642;4.834;2022-10-16T07:31:22;120.13;;;110.63;;
35376;SDS011;21480;51.642;4.834;2022-10-16T07:33:48;119.17;;;110.00;;
35376;SDS011;21480;51.642;4.834;2022-10-16T07:36:17;119.93;;;110.83;;
35376;SDS011;21480;51.642;4.834;2022-10-16T07:38:44;121.83;;;112.27;;
35376;SDS011;21480;51.642;4.834;2022-10-16T07:41:12;121.00;;;111.67;;
35376;SDS011;21480;51.642;4.834;2022-10-16T07:43:45;121.47;;;112.10;;
35376;SDS011;21480;51.642;4.834;2022-10-16T07:46:12;120.17;;;110.77;;
35376;SDS011;21480;51.642;4.834;2022-10-16T07:48:39;122.10;;;112.57;;
35376;SDS011;21480;51.642;4.834;2022-10-16T07:51:05;119.87;;;110.67;;
35376;SDS011;21480;51.642;4.834;2022-10-16T07:53:32;119.83;;;110.63;;
35376;SDS011;21480;51.642;4.834;2022-10-16T07:55:59;119.73;;;110.33;;
35376;SDS011;21480;51.642;4.834;2022-10-16T07:58:29;121.27;;;111.80;;
35376;SDS011;21480;51.642;4.834;2022-10-16T08:00:58;121.13;;;111.67;;
35376;SDS011;21480;51.642;4.834;2022-10-16T08:03:25;120.50;;;110.67;;
35376;SDS011;21480;51.642;4.834;2022-10-16T08:05:50;120.83;;;111.10;;
35376;SDS011;21480;51.642;4.834;2022-10-16T08:08:17;119.97;;;110.77;;
35376;SDS011;21480;51.642;4.834;2022-10-16T08:10:43;121.03;;;111.90;;
35376;SDS011;21480;51.642;4.834;2022-10-16T08:13:10;122.10;;;112.40;;
35376;SDS011;21480;51.642;4.834;2022-10-16T08:15:36;119.93;;;110.53;;
35376;SDS011;21480;51.642;4.834;2022-10-16T08:18:02;119.67;;;110.67;;
35376;SDS011;21480;51.642;4.834;2022-10-16T08:20:30;119.50;;;110.23;;
35376;SDS011;21480;51.642;4.834;2022-10-16T08:22:57;119.37;;;110.27;;
35376;SDS011;21480;51.642;4.834;2022-10-16T08:25:23;120.00;;;110.53;;
35376;SDS011;21480;51.642;4.834;2022-10-16T08:27:50;120.57;;;111.33;;
35376;SDS011;21480;51.642;4.834;2022-10-16T08:30:16;120.90;;;111.23;;
35376;SDS011;21480;51.642;4.834;2022-10-16T08:32:43;119.27;;;110.20;;
35376;SDS011;21480;51.642;4.834;2022-10-16T08:35:09;118.93;;;109.73;;
35376;SDS011;21480;51.642;4.834;2022-10-16T08:37:36;118.97;;;109.50;;
35376;SDS011;21480;51.642;4.834;2022-10-16T08:40:03;118.00;;;109.10;;
35376;SDS011;21480;51.642;4.834;2022-10-16T08:51:05;119.27;;;109.77;;
35376;SDS011;21480;51.642;4.834;2022-10-16T08:53:36;120.03;;;110.60;;
35376;SDS011;21480;51.642;4.834;2022-10-16T08:56:09;119.63;;;110.23;;
35376;SDS011;21480;51.642;4.834;2022-10-16T08:58:35;121.50;;;111.67;;
35376;SDS011;21480;51.642;4.834;2022-10-16T09:01:01;118.67;;;109.50;;
35376;SDS011;21480;51.642;4.834;2022-10-16T09:06:17;119.70;;;110.10;;
35376;SDS011;21480;51.642;4.834;2022-10-16T09:09:23;119.60;;;110.07;;
35376;SDS011;21480;51.642;4.834;2022-10-16T09:12:40;120.43;;;111.03;;
35376;SDS011;21480;51.642;4.834;2022-10-16T09:20:20;118.53;;;109.20;;
35376;SDS011;21480;51.642;4.834;2022-10-16T09:25:29;116.80;;;107.80;;
35376;SDS011;21480;51.642;4.834;2022-10-16T09:27:56;119.63;;;109.80;;
35376;SDS011;21480;51.642;4.834;2022-10-16T09:30:22;118.70;;;109.43;;
35376;SDS011;21480;51.642;4.834;2022-10-16T09:32:51;118.83;;;109.87;;
35376;SDS011;21480;51.642;4.834;2022-10-16T09:35:31;120.03;;;110.53;;
35376;SDS011;21480;51.642;4.834;2022-10-16T09:37:58;118.80;;;109.00;;
35376;SDS011;21480;51.642;4.834;2022-10-16T09:40:25;121.13;;;111.30;;
35376;SDS011;21480;51.642;4.834;2022-10-16T09:45:30;118.73;;;109.43;;
35376;SDS011;21480;51.642;4.834;2022-10-16T09:47:56;120.10;;;110.23;;
35376;SDS011;21480;51.642;4.834;2022-10-16T09:50:23;118.87;;;109.40;;
35376;SDS011;21480;51.642;4.834;2022-10-16T09:53:02;119.57;;;109.47;;
35376;SDS011;21480;51.642;4.834;2022-10-16T09:55:47;122.87;;;112.63;;
35376;SDS011;21480;51.642;4.834;2022-10-16T09:58:17;119.10;;;109.70;;
35376;SDS011;21480;51.642;4.834;2022-10-16T10:00:48;120.63;;;110.90;;
35376;SDS011;21480;51.642;4.834;2022-10-16T10:03:33;120.67;;;110.93;;
35376;SDS011;21480;51.642;4.834;2022-10-16T10:06:05;120.00;;;109.87;;
35376;SDS011;21480;51.642;4.834;2022-10-16T10:09:00;120.20;;;110.70;;
35376;SDS011;21480;51.642;4.834;2022-10-16T10:11:54;121.43;;;111.67;;
35376;SDS011;21480;51.642;4.834;2022-10-16T10:19:29;119.87;;;109.90;;
35376;SDS011;21480;51.642;4.834;2022-10-16T10:22:11;120.50;;;110.73;;
35376;SDS011;21480;51.642;4.834;2022-10-16T10:24:41;118.33;;;109.03;;
35376;SDS011;21480;51.642;4.834;2022-10-16T10:27:14;119.00;;;109.10;;
35376;SDS011;21480;51.642;4.834;2022-10-16T10:37:33;121.10;;;111.33;;
35376;SDS011;21480;51.642;4.834;2022-10-16T10:45:42;119.30;;;109.87;;
35376;SDS011;21480;51.642;4.834;2022-10-16T10:51:08;118.93;;;108.80;;
35376;SDS011;21480;51.642;4.834;2022-10-16T11:07:44;118.47;;;109.23;;
35376;SDS011;21480;51.642;4.834;2022-10-16T11:10:18;120.23;;;109.37;;
35376;SDS011;21480;51.642;4.834;2022-10-16T11:12:48;119.70;;;110.13;;
35376;SDS011;21480;51.642;4.834;2022-10-16T11:15:25;122.10;;;112.20;;
35376;SDS011;21480;51.642;4.834;2022-10-16T11:17:57;121.93;;;112.37;;
35376;SDS011;21480;51.642;4.834;2022-10-16T11:20:32;120.93;;;111.10;;
35376;SDS011;21480;51.642;4.834;2022-10-16T11:23:06;121.60;;;112.13;;
35376;SDS011;21480;51.642;4.834;2022-10-16T11:25:45;121.73;;;112.10;;
35376;SDS011;21480;51.642;4.834;2022-10-16T11:28:17;120.47;;;110.40;;
35376;SDS011;21480;51.642;4.834;2022-10-16T11:33:30;120.47;;;110.70;;
35376;SDS011;21480;51.642;4.834;2022-10-16T11:36:23;120.43;;;110.93;;
35376;SDS011;21480;51.642;4.834;2022-10-16T11:56:08;120.60;;;110.80;;
35376;SDS011;21480;51.642;4.834;2022-10-16T11:58:59;120.33;;;110.87;;
35376;SDS011;21480;51.642;4.834;2022-10-16T12:09:02;121.17;;;111.77;;
35376;SDS011;21480;51.642;4.834;2022-10-16T12:17:00;118.80;;;109.80;;
35376;SDS011;21480;51.642;4.834;2022-10-16T12:19:44;120.73;;;111.20;;
35376;SDS011;21480;51.642;4.834;2022-10-16T12:22:23;118.00;;;108.90;;
35376;SDS011;21480;51.642;4.834;2022-10-16T12:24:54;117.77;;;108.87;;
35376;SDS011;21480;51.642;4.834;2022-10-16T12:27:32;116.83;;;107.97;;
35376;SDS011;21480;51.642;4.834;2022-10-16T12:30:01;116.20;;;107.80;;
35376;SDS011;21480;51.642;4.834;2022-10-16T12:35:01;116.13;;;107.57;;
35376;SDS011;21480;51.642;4.834;2022-10-16T12:37:31;118.00;;;109.33;;
35376;SDS011;21480;51.642;4.834;2022-10-16T12:40:13;117.50;;;108.17;;
35376;SDS011;21480;51.642;4.834;2022-10-16T12:42:41;117.43;;;108.60;;
35376;SDS011;21480;51.642;4.834;2022-10-16T12:48:18;119.13;;;109.67;;
35376;SDS011;21480;51.642;4.834;2022-10-16T12:50:46;117.73;;;109.07;;
35376;SDS011;21480;51.642;4.834;2022-10-16T12:53:19;115.33;;;107.10;;
35376;SDS011;21480;51.642;4.834;2022-10-16T12:55:57;117.20;;;108.73;;
35376;SDS011;21480;51.642;4.834;2022-10-16T13:20:34;117.27;;;108.83;;
35376;SDS011;21480;51.642;4.834;2022-10-16T13:28:16;117.50;;;108.73;;
35376;SDS011;21480;51.642;4.834;2022-10-16T13:30:51;116.33;;;107.57;;
35376;SDS011;21480;51.642;4.834;2022-10-16T13:33:20;115.73;;;107.60;;
35376;SDS011;21480;51.642;4.834;2022-10-16T13:35:55;116.77;;;108.17;;
35376;SDS011;21480;51.642;4.834;2022-10-16T13:38:22;117.77;;;108.60;;
35376;SDS011;21480;51.642;4.834;2022-10-16T13:43:31;115.87;;;107.53;;
35376;SDS011;21480;51.642;4.834;2022-10-16T13:46:27;115.77;;;107.37;;
35376;SDS011;21480;51.642;4.834;2022-10-16T13:51:34;117.20;;;108.37;;
35376;SDS011;21480;51.642;4.834;2022-10-16T13:53:59;116.43;;;108.53;;
35376;SDS011;21480;51.642;4.834;2022-10-16T13:56:26;115.87;;;107.67;;
35376;SDS011;21480;51.642;4.834;2022-10-16T13:58:58;117.87;;;109.50;;
35376;SDS011;21480;51.642;4.834;2022-10-16T14:01:25;117.53;;;109.20;;
35376;SDS011;21480;51.642;4.834;2022-10-16T14:03:59;115.87;;;107.67;;
35376;SDS011;21480;51.642;4.834;2022-10-16T14:06:30;116.40;;;108.50;;
35376;SDS011;21480;51.642;4.834;2022-10-16T14:11:37;115.57;;;107.27;;
35376;SDS011;21480;51.642;4.834;2022-10-16T14:14:13;118.23;;;110.03;;
35376;SDS011;21480;51.642;4.834;2022-10-16T14:16:41;114.33;;;106.50;;
35376;SDS011;21480;51.642;4.834;2022-10-16T14:19:19;115.37;;;107.30;;
35376;SDS011;21480;51.642;4.834;2022-10-16T14:21:52;116.17;;;108.10;;
35376;SDS011;21480;51.642;4.834;2022-10-16T14:24:40;117.50;;;109.30;;
35376;SDS011;21480;51.642;4.834;2022-10-16T14:27:20;116.27;;;108.07;;
35376;SDS011;21480;51.642;4.834;2022-10-16T14:32:41;117.27;;;108.70;;
35376;SDS011;21480;51.642;4.834;2022-10-16T14:35:31;119.27;;;110.67;;
35376;SDS011;21480;51.642;4.834;2022-10-16T14:37:58;117.43;;;109.03;;
35376;SDS011;21480;51.642;4.834;2022-10-16T14:40:27;119.87;;;111.07;;
35376;SDS011;21480;51.642;4.834;2022-10-16T14:42:58;116.57;;;108.10;;
35376;SDS011;21480;51.642;4.834;2022-10-16T14:45:26;117.73;;;109.13;;
35376;SDS011;21480;51.642;4.834;2022-10-16T14:47:57;118.90;;;110.17;;
35376;SDS011;21480;51.642;4.834;2022-10-16T14:50:27;118.93;;;110.47;;
35376;SDS011;21480;51.642;4.834;2022-10-16T14:52:53;117.70;;;108.77;;
35376;SDS011;21480;51.642;4.834;2022-10-16T14:55:20;120.40;;;111.70;;
35376;SDS011;21480;51.642;4.834;2022-10-16T14:57:46;118.27;;;109.80;;
35376;SDS011;21480;51.642;4.834;2022-10-16T15:02:47;124.83;;;114.43;;
35376;SDS011;21480;51.642;4.834;2022-10-16T15:05:16;127.33;;;116.27;;
35376;SDS011;21480;51.642;4.834;2022-10-16T15:07:43;128.83;;;117.93;;
35376;SDS011;21480;51.642;4.834;2022-10-16T15:10:10;125.57;;;115.37;;
35376;SDS011;21480;51.642;4.834;2022-10-16T15:12:37;125.07;;;115.07;;
35376;SDS011;21480;51.642;4.834;2022-10-16T15:17:47;119.40;;;110.37;;
35376;SDS011;21480;51.642;4.834;2022-10-16T15:20:17;124.23;;;114.47;;
35376;SDS011;21480;51.642;4.834;2022-10-16T15:22:43;125.20;;;114.87;;
35376;SDS011;21480;51.642;4.834;2022-10-16T15:25:28;120.83;;;111.80;;
35376;SDS011;21480;51.642;4.834;2022-10-16T15:27:58;121.17;;;111.90;;
35376;SDS011;21480;51.642;4.834;2022-10-16T15:30:25;120.37;;;110.77;;
35376;SDS011;21480;51.642;4.834;2022-10-16T15:32:51;119.03;;;110.13;;
35376;SDS011;21480;51.642;4.834;2022-10-16T15:35:17;118.63;;;109.77;;
35376;SDS011;21480;51.642;4.834;2022-10-16T15:37:42;119.60;;;110.70;;
35376;SDS011;21480;51.642;4.834;2022-10-16T15:40:09;120.37;;;111.10;;
35376;SDS011;21480;51.642;4.834;2022-10-16T15:42:35;125.70;;;115.27;;
35376;SDS011;21480;51.642;4.834;2022-10-16T15:45:01;123.20;;;113.83;;
35376;SDS011;21480;51.642;4.834;2022-10-16T15:47:28;123.03;;;113.33;;
35376;SDS011;21480;51.642;4.834;2022-10-16T15:49:54;120.43;;;111.23;;
35376;SDS011;21480;51.642;4.834;2022-10-16T15:52:20;121.67;;;111.77;;
35376;SDS011;21480;51.642;4.834;2022-10-16T15:54:45;119.17;;;110.07;;
35376;SDS011;21480;51.642;4.834;2022-10-16T15:57:11;120.30;;;111.20;;
35376;SDS011;21480;51.642;4.834;2022-10-16T15:59:37;120.87;;;111.23;;
35376;SDS011;21480;51.642;4.834;2022-10-16T16:02:03;119.93;;;110.97;;
35376;SDS011;21480;51.642;4.834;2022-10-16T16:04:31;121.80;;;112.20;;
35376;SDS011;21480;51.642;4.834;2022-10-16T16:06:57;120.87;;;111.87;;
35376;SDS011;21480;51.642;4.834;2022-10-16T16:09:23;121.60;;;112.37;;
35376;SDS011;21480;51.642;4.834;2022-10-16T16:11:48;121.87;;;112.00;;
35376;SDS011;21480;51.642;4.834;2022-10-16T16:14:16;121.47;;;112.00;;
35376;SDS011;21480;51.642;4.834;2022-10-16T16:16:42;121.37;;;111.77;;
35376;SDS011;21480;51.642;4.834;2022-10-16T16:19:08;121.50;;;111.60;;
35376;SDS011;21480;51.642;4.834;2022-10-16T16:21:34;123.80;;;113.53;;
35376;SDS011;21480;51.642;4.834;2022-10-16T16:24:00;120.40;;;111.30;;
35376;SDS011;21480;51.642;4.834;2022-10-16T16:26:32;121.03;;;111.63;;
35376;SDS011;21480;51.642;4.834;2022-10-16T16:29:01;120.53;;;110.97;;
35376;SDS011;21480;51.642;4.834;2022-10-16T16:31:29;120.97;;;111.73;;
35376;SDS011;21480;51.642;4.834;2022-10-16T16:33:56;119.13;;;109.90;;
35376;SDS011;21480;51.642;4.834;2022-10-16T16:36:23;120.80;;;111.63;;
35376;SDS011;21480;51.642;4.834;2022-10-16T16:38:49;120.60;;;110.67;;
35376;SDS011;21480;51.642;4.834;2022-10-16T16:41:19;118.60;;;109.37;;
35376;SDS011;21480;51.642;4.834;2022-10-16T16:43:46;118.73;;;109.70;;
35376;SDS011;21480;51.642;4.834;2022-10-16T16:46:13;119.87;;;110.17;;
35376;SDS011;21480;51.642;4.834;2022-10-16T16:48:39;121.60;;;111.50;;